Time;durP1;ratioP1;P1;durP2;ratioP2;P2;SDS_P1;SDS_P2;PMS_P1;PMS_P2;Temp;Humidity;BMP_temperature;BMP_pressure;BME280_temperature;BME280_humidity;BME280_pressure;Samples;Min_cycle;Max_cycle;Signal;HPM_P1;HPM_P2
2023/05/10 05:01:28;;;;;;;;;2.00;0.33;;;;;15.73;71.08;101011.88;6252756;22;45682;-58
2023/05/10 05:03:54;;;;;;;;;1.00;1.00;;;;;15.77;70.80;101016.91;6279596;22;45558;-59
2023/05/10 05:06:20;;;;;;;;;5.00;1.00;;;;;15.77;71.40;101022.28;6280122;22;45874;-59
2023/05/10 05:08:46;;;;;;;;;1.00;1.00;;;;;15.85;70.87;101011.94;6279469;22;45327;-59
2023/05/10 05:11:11;;;;;;;;;2.00;1.00;;;;;15.84;70.85;101015.56;6279698;22;45253;-59
2023/05/10 05:13:38;;;;;;;;;2.00;2.00;;;;;15.79;71.84;101023.03;6279204;22;45518;-59
2023/05/10 05:16:04;;;;;;;;;3.00;3.00;;;;;15.76;71.46;101023.28;6277719;22;46134;-59
2023/05/10 05:18:29;;;;;;;;;2.00;1.67;;;;;15.90;71.43;101019.66;6280024;22;45342;-59
2023/05/10 05:20:55;;;;;;;;;2.00;2.00;;;;;15.91;72.07;101020.53;6278519;22;69044;-59
2023/05/10 05:23:20;;;;;;;;;3.67;2.00;;;;;15.97;72.04;101020.06;6278760;22;45391;-60
2023/05/10 05:25:46;;;;;;;;;1.00;1.00;;;;;16.02;71.69;101020.63;6278641;22;47108;-59
2023/05/10 05:28:11;;;;;;;;;1.67;1.67;;;;;16.00;72.04;101020.72;6279241;22;45293;-58
2023/05/10 05:30:37;;;;;;;;;1.33;1.33;;;;;16.04;72.08;101024.91;6278476;22;45271;-59
2023/05/10 05:33:02;;;;;;;;;3.67;2.00;;;;;16.10;71.63;101022.78;6251706;22;45363;-59
2023/05/10 05:35:28;;;;;;;;;2.67;2.00;;;;;16.15;71.81;101032.25;6275300;22;46366;-58
2023/05/10 05:37:53;;;;;;;;;3.00;1.67;;;;;16.15;71.86;101034.91;6270512;22;68614;-59
2023/05/10 05:40:18;;;;;;;;;4.00;2.33;;;;;16.17;72.15;101027.59;6278174;22;66292;-58
2023/05/10 05:42:44;;;;;;;;;8.00;2.00;;;;;16.23;71.91;101033.50;6277980;22;49129;-58
2023/05/10 05:45:12;;;;;;;;;4.67;2.00;;;;;16.29;71.90;101035.78;6251386;22;46987;-58
2023/05/10 05:47:38;;;;;;;;;2.67;2.00;;;;;16.35;71.78;101032.66;6275516;22;45350;-59
2023/05/10 05:50:03;;;;;;;;;4.00;3.00;;;;;16.32;71.63;101040.91;6279296;22;45270;-58
2023/05/10 05:52:30;;;;;;;;;1.67;1.67;;;;;16.38;71.97;101035.97;6279836;22;45381;-57
2023/05/10 05:54:55;;;;;;;;;3.00;3.00;;;;;16.49;71.84;101034.34;6278657;22;68452;-58
2023/05/10 05:57:20;;;;;;;;;5.67;3.00;;;;;16.59;72.07;101035.41;6278232;22;69614;-57
2023/05/10 05:59:46;;;;;;;;;5.33;2.00;;;;;16.80;72.11;101038.34;6277444;22;67727;-58
2023/05/10 06:02:11;;;;;;;;;2.00;2.00;;;;;17.09;71.60;101045.28;6278476;22;45389;-58
2023/05/10 06:04:36;;;;;;;;;7.33;7.33;;;;;17.03;72.43;101047.47;6277503;22;73534;-58
2023/05/10 06:07:02;;;;;;;;;3.00;3.00;;;;;17.13;71.91;101038.72;6279777;22;45575;-58
2023/05/10 06:09:27;;;;;;;;;3.33;3.33;;;;;17.06;71.77;101042.84;6280103;22;45690;-58
2023/05/10 06:11:52;;;;;;;;;2.67;2.67;;;;;16.78;72.36;101043.00;6279265;22;45185;-58
2023/05/10 06:14:20;;;;;;;;;1.67;1.67;;;;;16.92;72.20;101039.34;6277283;22;54833;-58
2023/05/10 06:16:46;;;;;;;;;5.00;4.00;;;;;16.89;71.98;101047.59;6276961;22;45510;-58
2023/05/10 06:19:12;;;;;;;;;5.00;4.67;;;;;16.92;71.86;101047.41;6276184;22;68473;-58
2023/05/10 06:21:37;;;;;;;;;3.00;3.00;;;;;16.98;71.37;101055.00;6277052;22;45390;-57
2023/05/10 06:24:03;;;;;;;;;6.00;4.33;;;;;16.99;72.00;101055.88;6250082;22;45509;-58
2023/05/10 06:26:28;;;;;;;;;3.67;1.67;;;;;16.97;71.50;101056.00;6277546;22;45373;-57
2023/05/10 06:28:53;;;;;;;;;3.33;3.33;;;;;16.99;71.81;101058.56;6276833;22;45369;-58
2023/05/10 06:31:19;;;;;;;;;3.00;3.00;;;;;16.99;71.84;101055.88;6272405;22;66946;-58
2023/05/10 06:33:44;;;;;;;;;4.67;3.00;;;;;17.01;71.92;101060.16;6274968;22;64470;-58
2023/05/10 06:36:09;;;;;;;;;5.67;4.33;;;;;17.01;71.99;101057.50;6276146;22;45533;-57
2023/05/10 06:38:35;;;;;;;;;5.00;4.00;;;;;16.99;71.83;101059.41;6246678;22;67308;-58
2023/05/10 06:41:00;;;;;;;;;3.67;2.67;;;;;17.02;72.07;101063.69;6276627;22;45462;-59
2023/05/10 06:43:26;;;;;;;;;5.67;3.67;;;;;16.97;71.72;101058.69;6276915;22;46829;-57
2023/05/10 06:45:51;;;;;;;;;3.67;2.67;;;;;16.97;71.67;101063.19;6277662;22;45365;-58
2023/05/10 06:48:17;;;;;;;;;5.67;3.33;;;;;16.97;72.26;101064.06;6276429;22;45283;-57
2023/05/10 06:50:42;;;;;;;;;4.33;1.67;;;;;17.00;72.12;101069.19;6249586;22;45447;-58
2023/05/10 06:53:07;;;;;;;;;3.33;2.67;;;;;17.08;72.07;101075.81;6276941;22;73273;-58
2023/05/10 06:55:33;;;;;;;;;4.67;4.33;;;;;17.17;71.90;101075.19;6273961;22;45547;-58
2023/05/10 06:57:58;;;;;;;;;4.00;4.00;;;;;17.20;71.66;101073.09;6274332;22;61405;-58
2023/05/10 07:00:23;;;;;;;;;4.33;1.67;;;;;17.24;71.67;101073.72;6275649;22;68793;-57
2023/05/10 07:02:49;;;;;;;;;4.67;4.67;;;;;17.26;71.94;101084.38;6269525;22;45513;-58
2023/05/10 07:05:14;;;;;;;;;1.67;1.67;;;;;17.23;72.38;101082.75;6275952;22;53241;-57
2023/05/10 07:07:40;;;;;;;;;5.67;4.00;;;;;17.23;72.41;101085.44;6275879;22;45407;-58
2023/05/10 07:10:07;;;;;;;;;2.67;2.67;;;;;17.24;85.18;101078.25;6276039;22;45268;-57
2023/05/10 07:12:32;;;;;;;;;2.00;2.00;;;;;17.24;73.41;101083.63;6248269;22;45778;-58
2023/05/10 07:14:57;;;;;;;;;7.00;4.33;;;;;17.22;73.34;101082.88;6248189;22;45379;-58
2023/05/10 07:17:23;;;;;;;;;2.67;2.67;;;;;17.24;73.22;101092.56;6276122;22;45325;-58
2023/05/10 07:19:48;;;;;;;;;4.67;4.67;;;;;17.20;73.43;101091.06;6248036;22;45301;-57
2023/05/10 07:22:14;;;;;;;;;5.67;3.67;;;;;17.15;73.78;101101.28;6275165;22;67130;-57
2023/05/10 07:24:40;;;;;;;;;4.00;4.00;;;;;17.07;75.62;101090.25;6269616;22;45341;-58
2023/05/10 07:27:05;;;;;;;;;5.33;5.33;;;;;16.83;75.32;101097.25;6273506;22;45304;-57
2023/05/10 07:29:31;;;;;;;;;6.33;6.33;;;;;16.87;74.53;101085.31;6274275;22;45655;-57
2023/05/10 07:31:56;;;;;;;;;8.00;4.33;;;;;16.70;76.69;101094.59;6273317;22;45612;-57
2023/05/10 07:34:22;;;;;;;;;6.33;5.67;;;;;16.65;77.31;101083.31;6273336;22;45600;-57
2023/05/10 07:36:47;;;;;;;;;7.00;5.33;;;;;16.68;77.28;101090.28;6272693;22;52232;-57
2023/05/10 07:39:12;;;;;;;;;6.33;5.67;;;;;16.83;76.09;101089.19;6273528;22;45296;-58
2023/05/10 07:41:38;;;;;;;;;5.33;4.67;;;;;16.90;75.76;101094.13;6274910;22;45509;-57
2023/05/10 07:44:04;;;;;;;;;7.00;7.00;;;;;16.90;78.36;101086.94;6275579;22;45290;-57
2023/05/10 07:46:29;;;;;;;;;6.67;5.67;;;;;16.84;77.57;101098.97;6275061;22;45632;-57
2023/05/10 07:48:55;;;;;;;;;5.33;5.33;;;;;16.85;76.06;101107.88;6275195;22;45264;-57
2023/05/10 07:51:20;;;;;;;;;4.67;4.00;;;;;16.88;76.15;101102.28;6275378;22;46945;-57
2023/05/10 07:53:46;;;;;;;;;3.67;3.67;;;;;16.88;77.15;101102.28;6274668;22;45248;-57
2023/05/10 07:56:27;;;;;;;;;6.33;5.00;;;;;16.91;76.54;101095.84;6275652;22;49184;-57
2023/05/10 07:58:53;;;;;;;;;4.33;4.33;;;;;16.91;76.37;101107.47;6248497;22;45288;-57
2023/05/10 08:01:19;;;;;;;;;5.67;4.67;;;;;17.06;76.97;101110.03;6275530;22;46219;-57
2023/05/10 08:03:44;;;;;;;;;5.00;4.67;;;;;16.90;76.47;101099.50;6246721;22;45336;-57
2023/05/10 08:06:10;;;;;;;;;6.67;5.00;;;;;16.93;76.42;101105.53;6247886;22;52592;-58
2023/05/10 08:08:35;;;;;;;;;10.67;7.67;;;;;16.94;76.36;101104.56;6275893;22;45095;-58
2023/05/10 08:11:01;;;;;;;;;8.00;6.33;;;;;17.01;76.02;101108.53;6275789;22;45374;-58
2023/05/10 08:13:26;;;;;;;;;7.33;7.33;;;;;17.09;75.63;101109.78;6274705;22;71120;-58
2023/05/10 08:15:52;;;;;;;;;10.00;8.67;;;;;17.08;76.01;101114.31;6246857;22;52072;-58
2023/05/10 08:18:18;;;;;;;;;8.33;7.00;;;;;17.14;76.26;101119.25;6275861;22;45311;-57
2023/05/10 08:20:44;;;;;;;;;8.33;8.00;;;;;17.15;76.35;101118.25;6275014;22;45399;-57
2023/05/10 08:23:09;;;;;;;;;7.00;6.33;;;;;17.19;77.78;101119.78;6275310;22;45687;-57
2023/05/10 08:25:34;;;;;;;;;7.00;6.00;;;;;17.25;76.51;101114.91;6275857;22;57952;-57
2023/05/10 08:28:00;;;;;;;;;8.33;8.33;;;;;17.38;76.07;101125.63;6248353;22;61419;-57
2023/05/10 08:30:25;;;;;;;;;7.67;7.00;;;;;17.45;75.49;101124.19;6275362;22;73731;-57
2023/05/10 08:32:50;;;;;;;;;9.67;6.33;;;;;17.45;76.07;101133.13;6274097;22;71198;-57
2023/05/10 08:35:16;;;;;;;;;8.00;8.00;;;;;17.49;75.21;101128.38;6275260;22;64983;-57
2023/05/10 08:37:41;;;;;;;;;13.00;8.00;;;;;17.60;75.78;101141.00;6274316;22;67712;-57
2023/05/10 08:40:09;;;;;;;;;8.33;8.00;;;;;17.81;75.53;101139.41;6276481;22;45948;-57
2023/05/10 08:42:37;;;;;;;;;6.67;6.00;;;;;18.01;74.29;101150.53;6275258;22;45599;-57
2023/05/10 08:45:03;;;;;;;;;6.00;4.67;;;;;18.32;74.21;101149.03;6275406;22;45465;-56
2023/05/10 08:47:29;;;;;;;;;8.33;8.33;;;;;18.75;73.64;101142.13;6248272;22;45490;-58
2023/05/10 08:49:54;;;;;;;;;7.33;6.00;;;;;19.33;71.69;101144.72;6273096;22;45382;-58
2023/05/10 08:52:20;;;;;;;;;5.67;5.67;;;;;20.05;71.27;101147.81;6272965;22;68327;-58
2023/05/10 08:54:46;;;;;;;;;7.33;6.00;;;;;20.77;68.31;101156.97;6247317;22;63937;-58
2023/05/10 08:57:11;;;;;;;;;9.33;7.00;;;;;21.02;66.00;101159.34;6276172;22;51988;-56
2023/05/10 08:59:39;;;;;;;;;6.33;6.33;;;;;20.87;65.47;101151.63;6247214;22;69096;-58
2023/05/10 09:02:05;;;;;;;;;10.33;7.00;;;;;20.37;66.08;101164.94;6275640;22;45676;-58
2023/05/10 09:04:31;;;;;;;;;8.50;5.50;;;;;20.16;66.52;101163.94;6248527;22;45273;-58
2023/05/10 09:06:56;;;;;;;;;7.00;4.00;;;;;19.97;66.40;101164.66;6275844;22;45330;-58
2023/05/10 09:09:22;;;;;;;;;7.33;7.33;;;;;19.89;66.26;101159.03;6274869;22;46083;-58
2023/05/10 09:11:47;;;;;;;;;9.33;7.00;;;;;19.75;66.60;101170.97;6274575;22;52916;-58
2023/05/10 09:14:13;;;;;;;;;5.67;4.00;;;;;19.73;67.56;101174.78;6248940;22;45340;-58
2023/05/10 09:16:39;;;;;;;;;5.67;5.00;;;;;19.76;67.10;101180.75;6247400;22;45324;-58
2023/05/10 09:19:04;;;;;;;;;5.00;5.00;;;;;19.81;66.85;101178.56;6248020;22;45371;-58
2023/05/10 09:21:30;;;;;;;;;5.67;5.67;;;;;19.96;66.73;101189.09;6247703;22;45323;-58
2023/05/10 09:23:56;;;;;;;;;13.00;7.00;;;;;20.09;67.24;101184.34;6248571;22;45264;-59
2023/05/10 09:26:22;;;;;;;;;9.33;6.33;;;;;20.20;66.07;101191.53;6275151;22;45262;-58
2023/05/10 09:28:55;;;;;;;;;7.67;7.00;;;;;20.29;65.49;101192.63;6274408;22;45481;-58
2023/05/10 09:31:20;;;;;;;;;8.33;6.67;;;;;20.29;64.26;101206.97;6275449;22;45319;-58
2023/05/10 09:33:47;;;;;;;;;7.33;6.67;;;;;20.22;64.96;101199.50;6275013;22;45757;-58
2023/05/10 09:36:13;;;;;;;;;7.00;7.00;;;;;20.23;64.70;101204.78;6276309;22;45584;-58
2023/05/10 09:38:46;;;;;;;;;9.67;8.00;;;;;20.07;64.96;101209.78;6275519;22;45386;-58
2023/05/10 09:41:17;;;;;;;;;6.67;4.00;;;;;19.91;64.96;101202.94;6274636;22;45363;-57
2023/05/10 09:43:42;;;;;;;;;11.33;6.67;;;;;19.76;65.52;101209.59;6275622;22;45374;-58
2023/05/10 09:46:11;;;;;;;;;8.33;7.33;;;;;19.67;65.92;101208.50;6276118;22;45335;-58
2023/05/10 09:48:44;;;;;;;;;9.33;7.67;;;;;19.57;65.97;101207.53;6275119;22;46141;-58
2023/05/10 09:51:10;;;;;;;;;5.67;5.33;;;;;19.43;64.57;101208.69;6276140;22;45667;-58
2023/05/10 09:53:35;;;;;;;;;14.00;9.67;;;;;19.21;65.48;101221.19;6250068;22;45300;-58
2023/05/10 09:56:00;;;;;;;;;9.00;8.00;;;;;19.05;65.70;101210.78;6276230;22;66958;-59
2023/05/10 09:58:26;;;;;;;;;8.33;7.67;;;;;19.12;65.95;101217.38;6274546;22;62107;-58
2023/05/10 10:00:52;;;;;;;;;8.00;7.00;;;;;19.09;65.59;101224.88;6247873;22;45303;-58
2023/05/10 10:03:19;;;;;;;;;12.33;7.33;;;;;19.04;66.33;101224.38;6249815;22;45212;-58
2023/05/10 10:05:46;;;;;;;;;17.67;7.33;;;;;18.97;66.42;101224.84;6276086;22;45280;-57
2023/05/10 10:08:13;;;;;;;;;7.00;6.00;;;;;18.88;66.57;101228.25;6276778;22;45363;-58
2023/05/10 10:10:40;;;;;;;;;9.00;6.00;;;;;18.78;65.98;101232.63;6276616;22;45331;-58
2023/05/10 10:13:06;;;;;;;;;7.67;6.00;;;;;18.72;66.25;101233.09;6249841;22;45445;-57
2023/05/10 10:15:33;;;;;;;;;10.67;8.67;;;;;18.71;66.06;101231.38;6248825;22;45539;-57
2023/05/10 10:17:59;;;;;;;;;13.00;10.33;;;;;18.70;66.36;101229.69;6222848;22;45958;-58
2023/05/10 10:20:24;;;;;;;;;9.33;6.33;;;;;18.90;66.62;101229.00;6274528;22;45253;-57
2023/05/10 10:22:50;;;;;;;;;13.67;7.00;;;;;19.11;66.21;101229.16;6247845;22;45277;-58
2023/05/10 10:25:17;;;;;;;;;10.67;7.33;;;;;19.44;65.65;101229.28;6277071;22;45330;-57
2023/05/10 10:27:48;;;;;;;;;9.67;8.00;;;;;19.78;64.69;101221.97;6275840;22;46022;-58
2023/05/10 10:30:24;;;;;;;;;10.67;8.00;;;;;20.11;62.80;101216.63;6275225;22;45263;-57
2023/05/10 10:33:27;;;;;;;;;11.00;11.00;;;;;20.98;61.36;101219.09;6276165;22;45228;-57
2023/05/10 10:35:53;;;;;;;;;10.33;6.67;;;;;21.35;57.43;101209.56;6276224;22;45468;-57
2023/05/10 10:38:18;;;;;;;;;7.00;7.00;;;;;21.57;58.95;101213.94;6276771;22;45336;-57
2023/05/10 10:40:44;;;;;;;;;10.33;9.67;;;;;21.88;57.43;101211.13;6275075;22;61026;-58
2023/05/10 10:43:26;;;;;;;;;12.00;7.00;;;;;22.02;57.73;101211.72;6275266;22;62219;-59
2023/05/10 10:46:17;;;;;;;;;13.67;8.33;;;;;22.31;56.16;101209.84;6275583;22;45354;-57
2023/05/10 10:48:48;;;;;;;;;12.00;10.00;;;;;22.51;55.49;101211.72;6275603;22;45343;-58
2023/05/10 10:51:14;;;;;;;;;12.67;10.33;;;;;23.00;54.36;101211.59;6276106;22;45323;-59
2023/05/10 10:53:40;;;;;;;;;10.67;8.67;;;;;23.01;52.60;101218.72;6276232;22;45347;-58
2023/05/10 10:56:10;;;;;;;;;9.00;9.00;;;;;23.24;53.51;101211.94;6249457;22;45326;-58
2023/05/10 10:58:38;;;;;;;;;11.67;8.00;;;;;23.41;51.96;101212.16;6275767;22;45968;-58
2023/05/10 11:01:14;;;;;;;;;11.00;6.67;;;;;23.31;53.11;101219.50;6275332;22;45413;-58
2023/05/10 11:03:40;;;;;;;;;7.67;6.67;;;;;22.84;53.07;101215.81;6266559;22;45315;-58
2023/05/10 11:06:05;;;;;;;;;7.00;7.00;;;;;22.47;52.93;101219.28;6248128;22;45243;-58
2023/05/10 11:08:32;;;;;;;;;9.67;8.00;;;;;22.17;52.44;101223.00;6275458;22;45339;-58
2023/05/10 11:11:00;;;;;;;;;11.33;9.00;;;;;21.97;53.97;101223.81;6271266;22;45426;-58
2023/05/10 11:13:45;;;;;;;;;9.67;6.33;;;;;22.84;54.82;101223.94;6275505;22;45522;-58
2023/05/10 11:16:15;;;;;;;;;6.33;5.00;;;;;24.02;51.53;101212.53;6276366;22;45233;-58
2023/05/10 11:18:40;;;;;;;;;6.33;5.33;;;;;24.66;51.64;101215.97;6274390;22;45962;-58
2023/05/10 11:21:13;;;;;;;;;7.33;6.33;;;;;24.93;47.96;101219.53;6249170;22;45190;-58
2023/05/10 11:23:47;;;;;;;;;9.75;5.25;;;;;25.39;47.73;101214.69;6275505;22;45197;-58
2023/05/10 11:26:13;;;;;;;;;6.33;6.00;;;;;27.38;47.28;101197.31;6276884;22;45211;-58
2023/05/10 11:28:46;;;;;;;;;10.00;7.00;;;;;29.40;45.19;101207.03;6276215;22;45304;-58
2023/05/10 11:31:18;;;;;;;;;6.67;5.33;;;;;30.07;40.79;101196.00;6275795;22;45356;-58
2023/05/10 11:33:48;;;;;;;;;8.50;6.75;;;;;31.10;40.27;101195.53;6275829;22;45379;-58
2023/05/10 11:36:15;;;;;;;;;5.50;4.00;;;;;32.22;35.31;101195.25;6276841;22;45273;-58
2023/05/10 11:38:40;;;;;;;;;7.00;6.00;;;;;32.15;34.03;101197.94;6276368;22;46250;-58
2023/05/10 11:41:08;;;;;;;;;4.00;1.00;;;;;30.83;34.87;101198.94;6271799;22;45244;-59
2023/05/10 11:43:33;;;;;;;;;7.00;6.00;;;;;29.87;35.00;101199.38;6274597;22;45420;-58
2023/05/10 11:45:59;;;;;;;;;6.00;6.00;;;;;29.53;35.27;101198.16;6273429;22;64894;-59
2023/05/10 11:48:24;;;;;;;;;5.75;5.25;;;;;29.43;31.28;101201.19;6273837;22;66160;-58
2023/05/10 11:50:50;;;;;;;;;8.25;5.00;;;;;29.61;34.15;101200.75;6275008;22;45313;-59
2023/05/10 11:53:15;;;;;;;;;4.50;4.50;;;;;30.33;35.13;101195.38;6272483;22;69474;-58
2023/05/10 11:55:40;;;;;;;;;8.50;5.50;;;;;31.08;33.63;101193.00;6272397;22;66822;-58
2023/05/10 11:58:06;;;;;;;;;7.50;6.50;;;;;31.45;33.54;101198.22;6274345;22;74294;-58
2023/05/10 12:00:31;;;;;;;;;6.00;4.50;;;;;31.15;33.28;101204.00;6275015;22;68636;-59
2023/05/10 12:02:57;;;;;;;;;8.25;6.75;;;;;30.80;31.58;101196.59;6275778;22;45303;-59
2023/05/10 12:05:23;;;;;;;;;4.50;4.25;;;;;29.80;32.52;101193.81;6275005;22;45574;-59
2023/05/10 12:07:48;;;;;;;;;5.00;4.75;;;;;28.78;33.36;101187.22;6274431;22;45404;-59
2023/05/10 12:10:14;;;;;;;;;5.00;5.00;;;;;28.56;34.43;101199.88;6274759;22;70480;-59
2023/05/10 12:12:49;;;;;;;;;7.00;4.50;;;;;28.59;33.79;101193.19;6274712;22;45341;-59
2023/05/10 12:15:22;;;;;;;;;6.25;4.00;;;;;28.13;33.68;101184.03;6275873;22;45347;-59
2023/05/10 12:17:48;;;;;;;;;8.25;6.75;;;;;27.61;33.20;101187.47;6274475;22;46361;-59
2023/05/10 12:20:21;;;;;;;;;7.00;5.50;;;;;26.66;34.31;101194.56;6275797;22;45328;-59
2023/05/10 12:23:02;;;;;;;;;5.00;5.00;;;;;25.74;35.12;101193.69;6275313;22;45387;-58
2023/05/10 12:25:33;;;;;;;;;7.00;5.50;;;;;25.12;36.07;101188.50;6275129;22;45360;-58
2023/05/10 12:28:00;;;;;;;;;5.50;4.50;;;;;25.10;37.33;101185.13;6274382;22;45661;-58
2023/05/10 12:30:28;;;;;;;;;7.00;5.00;;;;;25.60;38.10;101180.72;6275554;22;45258;-59
2023/05/10 12:33:00;;;;;;;;;6.00;4.25;;;;;26.28;36.14;101183.38;6222748;22;45370;-58
2023/05/10 12:35:25;;;;;;;;;5.75;4.50;;;;;26.57;36.45;101177.41;6275213;22;45230;-59
2023/05/10 12:37:51;;;;;;;;;5.00;4.25;;;;;26.29;35.96;101185.09;6273690;22;46490;-59
2023/05/10 12:40:16;;;;;;;;;5.00;5.00;;;;;25.49;36.11;101173.72;6274318;22;67592;-59
2023/05/10 12:42:44;;;;;;;;;5.50;5.50;;;;;24.89;37.84;101180.94;6222290;22;45321;-59
2023/05/10 12:45:10;;;;;;;;;5.25;5.25;;;;;24.47;38.40;101187.09;6275268;22;45561;-59
2023/05/10 12:47:35;;;;;;;;;9.75;6.00;;;;;24.00;38.97;101181.94;6274153;22;46901;-59
2023/05/10 12:50:02;;;;;;;;;6.00;5.25;;;;;23.45;39.38;101189.13;6274969;22;45326;-59
2023/05/10 12:52:28;;;;;;;;;4.25;4.25;;;;;23.10;40.28;101198.84;6222971;22;45309;-59
2023/05/10 12:54:54;;;;;;;;;7.00;5.00;;;;;22.80;41.41;101195.38;6275399;22;45322;-59
2023/05/10 12:57:23;;;;;;;;;5.33;5.33;;;;;22.80;41.84;101190.84;6274831;22;46906;-59
2023/05/10 12:59:48;;;;;;;;;6.50;5.25;;;;;23.22;41.76;101191.41;6247018;22;45367;-59
2023/05/10 13:02:14;;;;;;;;;10.00;7.00;;;;;23.67;41.72;101179.72;6274490;22;63013;-59
2023/05/10 13:04:40;;;;;;;;;6.75;5.50;;;;;24.05;41.30;101185.03;6275319;22;45790;-59
2023/05/10 13:07:09;;;;;;;;;6.75;6.00;;;;;24.29;41.17;101189.84;6275065;22;46654;-58
2023/05/10 13:09:34;;;;;;;;;6.75;5.00;;;;;24.36;40.16;101187.34;6247834;22;45367;-59
2023/05/10 13:12:00;;;;;;;;;5.25;4.00;;;;;24.14;39.88;101184.09;6275413;22;45304;-59
2023/05/10 13:14:26;;;;;;;;;10.50;6.00;;;;;23.72;40.75;101190.13;6275247;22;45486;-58
2023/05/10 13:16:51;;;;;;;;;6.25;5.00;;;;;23.31;41.67;101195.94;6274812;22;45324;-59
2023/05/10 13:19:17;;;;;;;;;3.00;3.00;;;;;22.76;41.77;101192.13;6246837;22;63829;-59
2023/05/10 13:21:44;;;;;;;;;4.00;4.00;;;;;22.34;42.93;101205.16;6275240;22;45340;-59
2023/05/10 13:24:10;;;;;;;;;8.00;5.00;;;;;21.93;44.15;101203.44;6274058;22;45506;-58
2023/05/10 13:26:36;;;;;;;;;6.75;5.50;;;;;21.65;45.81;101199.69;6274796;22;45375;-58
2023/05/10 13:29:01;;;;;;;;;7.75;4.00;;;;;21.59;45.56;101202.97;6276561;22;45853;-58
2023/05/10 13:31:27;;;;;;;;;6.50;4.75;;;;;21.72;46.15;101190.03;6277097;22;45378;-58
2023/05/10 13:33:52;;;;;;;;;7.00;5.67;;;;;22.05;46.28;101192.50;6248551;22;52379;-58
2023/05/10 13:36:17;;;;;;;;;5.67;4.00;;;;;22.35;45.74;101185.22;6275493;22;73097;-58
2023/05/10 13:38:43;;;;;;;;;4.00;4.00;;;;;22.52;45.62;101184.47;6276889;22;45358;-58
2023/05/10 13:41:08;;;;;;;;;5.67;4.00;;;;;22.54;45.46;101174.34;6275991;22;61297;-58
2023/05/10 13:43:33;;;;;;;;;6.33;4.00;;;;;22.46;45.37;101177.81;6276135;22;48872;-59
2023/05/10 13:45:59;;;;;;;;;6.50;5.75;;;;;22.34;44.23;101173.50;6275873;22;46139;-58
2023/05/10 13:48:24;;;;;;;;;5.33;4.33;;;;;22.25;45.07;101187.91;6274117;22;62539;-59
2023/05/10 13:50:49;;;;;;;;;9.00;6.00;;;;;22.13;44.95;101179.06;6248849;22;45301;-59
2023/05/10 13:53:15;;;;;;;;;5.00;4.00;;;;;22.23;44.33;101177.22;6277092;22;45340;-58
2023/05/10 13:55:41;;;;;;;;;5.00;4.00;;;;;22.58;44.24;101170.34;6276159;22;46292;-60
2023/05/10 13:58:06;;;;;;;;;4.25;3.50;;;;;22.94;43.20;101156.09;6275828;22;68699;-59
2023/05/10 14:00:31;;;;;;;;;7.00;4.00;;;;;23.15;42.41;101165.91;6246629;22;70350;-59
2023/05/10 14:02:57;;;;;;;;;5.00;3.25;;;;;23.28;41.69;101158.25;6269714;22;45500;-59
2023/05/10 14:05:23;;;;;;;;;4.00;2.25;;;;;23.46;40.78;101171.84;6274509;22;45357;-58
2023/05/10 14:07:48;;;;;;;;;2.75;1.50;;;;;23.42;37.92;101156.88;6273360;22;45442;-59
2023/05/10 14:10:14;;;;;;;;;1.00;1.00;;;;;23.27;39.00;101160.13;6273093;22;45423;-59
2023/05/10 14:12:39;;;;;;;;;2.75;1.25;;;;;23.22;38.41;101150.69;6271583;22;45689;-58
2023/05/10 14:15:06;;;;;;;;;1.75;1.25;;;;;23.14;39.50;101151.50;6274515;22;45369;-58
2023/05/10 14:17:31;;;;;;;;;2.75;2.00;;;;;23.16;39.21;101157.59;6247688;22;45344;-59
2023/05/10 14:19:57;;;;;;;;;4.50;2.00;;;;;23.17;39.60;101148.47;6275114;22;45335;-59
2023/05/10 14:22:22;;;;;;;;;3.00;3.00;;;;;23.27;40.10;101142.97;6275340;22;45371;-58
2023/05/10 14:24:48;;;;;;;;;1.25;1.25;;;;;23.48;39.69;101141.84;6277162;22;46108;-57
2023/05/10 14:27:13;;;;;;;;;1.50;1.50;;;;;23.48;39.50;101150.00;6277518;22;45192;-58
2023/05/10 14:29:39;;;;;;;;;3.00;1.00;;;;;23.40;39.07;101148.91;6275627;22;45349;-58
2023/05/10 14:32:04;;;;;;;;;4.00;0.50;;;;;23.25;39.72;101143.13;6277131;22;45248;-57
2023/05/10 14:34:30;;;;;;;;;4.75;2.00;;;;;23.11;39.43;101154.44;6276483;22;45461;-58
2023/05/10 14:36:55;;;;;;;;;16.33;12.33;;;;;22.94;39.61;101147.97;6276019;22;66423;-58
2023/05/10 14:39:21;;;;;;;;;4.00;2.50;;;;;22.90;40.18;101144.69;6276051;22;45186;-59
2023/05/10 14:41:47;;;;;;;;;3.00;3.00;;;;;22.86;40.75;101146.00;6274921;22;65925;-59
2023/05/10 14:44:12;;;;;;;;;5.50;2.50;;;;;22.90;40.35;101147.41;6277301;22;45595;-58
2023/05/10 14:46:38;;;;;;;;;2.00;2.00;;;;;23.04;40.31;101145.22;6276259;22;45271;-59
2023/05/10 14:49:03;;;;;;;;;3.00;3.00;;;;;23.16;39.81;101143.19;6249046;22;45367;-59
2023/05/10 14:51:29;;;;;;;;;2.50;1.25;;;;;23.31;39.62;101135.38;6277904;22;45258;-59
2023/05/10 14:53:54;;;;;;;;;2.00;2.00;;;;;23.30;38.85;101142.69;6277300;22;45252;-59
2023/05/10 14:56:21;;;;;;;;;3.50;1.25;;;;;23.15;38.73;101145.03;6277725;22;45280;-59
2023/05/10 14:58:46;;;;;;;;;5.25;1.75;;;;;23.00;38.78;101143.78;6277326;22;45217;-59
2023/05/10 15:01:11;;;;;;;;;4.25;1.25;;;;;22.81;39.26;101148.28;6275921;22;64882;-58
2023/05/10 15:03:37;;;;;;;;;5.75;3.50;;;;;22.79;39.51;101136.75;6275804;22;68864;-58
2023/05/10 15:06:03;;;;;;;;;2.00;2.00;;;;;22.86;39.56;101139.72;6278096;22;45313;-58
2023/05/10 15:08:28;;;;;;;;;3.00;3.00;;;;;22.98;39.04;101134.97;6250330;22;45292;-59
2023/05/10 15:10:55;;;;;;;;;2.00;2.00;;;;;23.01;39.63;101138.25;6276906;22;45463;-59
2023/05/10 15:13:20;;;;;;;;;2.00;2.00;;;;;22.95;39.00;101146.97;6249690;22;46025;-58
2023/05/10 15:15:46;;;;;;;;;2.00;2.00;;;;;22.94;38.72;101138.00;6249796;22;45252;-59
2023/05/10 15:18:11;;;;;;;;;2.00;2.00;;;;;23.07;39.02;101150.34;6276985;22;45266;-58
2023/05/10 15:20:37;;;;;;;;;3.00;1.75;;;;;23.15;38.70;101150.47;6277113;22;45422;-60
2023/05/10 15:23:02;;;;;;;;;1.67;1.67;;;;;23.05;38.64;101161.34;6276117;22;68879;-59
2023/05/10 15:25:28;;;;;;;;;3.00;2.25;;;;;22.86;39.01;101161.44;6277073;22;45350;-59
2023/05/10 15:27:54;;;;;;;;;1.50;1.50;;;;;22.72;39.27;101157.31;6276628;22;45317;-59
2023/05/10 15:30:19;;;;;;;;;6.00;3.75;;;;;22.61;39.59;101163.78;6277626;22;45390;-59
2023/05/10 15:32:45;;;;;;;;;5.75;2.00;;;;;22.62;39.98;101166.34;6276592;22;45337;-59
2023/05/10 15:35:10;;;;;;;;;3.25;2.75;;;;;22.62;39.93;101162.78;6276564;22;45260;-59
2023/05/10 15:37:36;;;;;;;;;5.50;4.00;;;;;22.62;40.48;101165.50;6248034;22;68527;-59
2023/05/10 15:40:03;;;;;;;;;6.25;2.00;;;;;22.56;40.30;101169.63;6249775;22;45422;-62
2023/05/10 15:42:30;;;;;;;;;3.50;3.50;;;;;22.46;40.27;101168.78;6276529;22;46084;-59
2023/05/10 15:44:55;;;;;;;;;4.67;3.00;;;;;22.28;40.20;101172.22;6276893;22;45224;-59
2023/05/10 15:47:21;;;;;;;;;4.00;2.00;;;;;22.11;39.57;101172.94;6276471;22;45304;-59
2023/05/10 15:49:46;;;;;;;;;4.25;3.00;;;;;22.03;39.75;101175.50;6276103;22;55953;-59
2023/05/10 15:52:11;;;;;;;;;4.00;2.00;;;;;21.98;40.00;101168.69;6249060;22;47348;-59
2023/05/10 15:54:37;;;;;;;;;3.25;3.25;;;;;22.07;39.78;101172.41;6275681;22;70357;-59
2023/05/10 15:57:02;;;;;;;;;2.50;2.25;;;;;22.23;39.18;101177.22;6277691;22;45375;-58
2023/05/10 15:59:28;;;;;;;;;1.00;1.00;;;;;22.38;38.79;101182.22;6277554;22;45846;-58
2023/05/10 16:01:53;;;;;;;;;3.50;2.00;;;;;22.40;39.16;101177.53;6276255;22;45425;-59
2023/05/10 16:04:19;;;;;;;;;3.00;3.00;;;;;22.33;39.66;101181.78;6250038;22;45251;-59
2023/05/10 16:06:45;;;;;;;;;2.50;2.50;;;;;22.17;39.58;101180.50;6276346;22;45345;-59
2023/05/10 16:09:10;;;;;;;;;5.33;4.00;;;;;21.95;39.80;101182.50;6276182;22;67369;-58
2023/05/10 16:11:35;;;;;;;;;3.00;3.00;;;;;21.80;40.69;101178.50;6276484;22;45653;-58
2023/05/10 16:14:01;;;;;;;;;3.00;3.00;;;;;;;;6276451;22;57888;-58
2023/05/10 16:16:26;;;;;;;;;3.67;3.00;;;;;21.61;41.63;101173.91;6277323;22;45202;-58
2023/05/10 16:18:51;;;;;;;;;3.33;3.33;;;;;21.55;41.88;101180.75;6276230;22;45264;-58
2023/05/10 16:21:17;;;;;;;;;6.00;3.33;;;;;21.51;42.44;101187.41;6276755;22;48552;-58